Latest Weather Observations for Degrussa Aerodrome

IDW60801

Issued at 4:04 pm WST Monday 25 September 2017 (issued every 30 minutes, with the page automatically refreshed every 10 minutes)

About weather observations | Map of weather stations | Latest weather observations for WA | Other Formats
Station Details ID: 507500 Name: DEGRUSSA AERODROME Lat: -25.56 Lon: 119.29 Height: 550.91 m
Data from the previous 72 hours. | See also: Recent months for locations in Western Australia
Date/Time
WST
Temp
°C
App
Temp
°C
Dew
Point
°C
Rel
Hum
%
Delta-T
°C
Wind Press
QNH
hPa
Press
MSL
hPa
Rain since
9am
mm
Dir  Spd
km/h
Gust
km/h
Spd
kts
Gust
kts
25/04:00pm 21.4 13.5 1.1 26 9.6 WNW 32 44 17 24 1008.8 1006.9 0.0
25/03:30pm 21.1 12.7 1.4 27 9.3 WNW 35 54 19 29 1008.8 1006.9 0.0
25/03:00pm 21.6 12.8 1.3 26 9.6 WNW 37 57 20 31 1008.8 1006.9 0.0
25/02:33pm 21.3 13.5 1.6 27 9.3 WNW 32 50 17 27 1009.2 1007.3 0.0
25/02:30pm 22.0 13.6 1.6 26 9.7 WNW 35 52 19 28 1009.2 1007.3 0.0
25/02:00pm 21.2 13.1 3.4 31 8.8 WNW 35 54 19 29 1009.3 1007.4 0.0
25/01:51pm 21.0 12.8 2.8 30 8.8 WNW 35 54 19 29 1009.5 1007.5 0.0
25/01:30pm 20.3 13.2 5.5 38 7.5 WNW 32 46 17 25 1009.9 1008.0 0.0
25/01:00pm 20.2 13.0 5.8 39 7.4 WNW 33 54 18 29 1010.1 1008.2 0.0
25/12:57pm 20.4 13.4 6.0 39 7.4 WNW 32 54 17 29 1010.2 1008.3 0.0
25/12:30pm 19.2 13.3 6.0 42 6.7 WNW 26 41 14 22 1010.4 1008.5 0.0
25/12:11pm 20.4 14.3 6.7 41 7.1 WNW 28 48 15 26 1010.5 1008.6 0.0
25/12:00pm 19.3 12.9 7.1 45 6.4 WNW 30 41 16 22 1010.7 1008.8 0.0
25/11:30am 18.6 14.1 8.6 52 5.3 W 22 35 12 19 1011.4 1009.4 0.0
25/11:00am 17.4 11.9 9.1 58 4.4 W 28 39 15 21 1011.9 1010.0 0.0
25/10:55am 17.1 11.6 9.3 60 4.2 W 28 39 15 21 1012.1 1010.2 0.0
25/10:30am 15.0 11.2 11.0 77 2.2 WSW 22 32 12 17 1012.3 1010.4 0.0
25/10:19am 14.5 10.4 11.3 81 1.8 W 24 30 13 16 1012.3 1010.4 0.0
25/10:10am 13.8 10.0 11.1 84 1.5 W 22 32 12 17 1012.3 1010.4 0.0
25/10:00am 13.8 9.3 11.5 86 1.3 W 26 33 14 18 1012.4 1010.5 0.0
25/09:58am 14.0 9.4 11.2 83 1.5 W 26 39 14 21 1012.4 1010.5 0.0
25/09:30am 15.1 9.6 9.0 67 3.2 W 28 39 15 21 1012.1 1010.2 0.0
25/09:00am 15.7 9.4 9.6 67 3.3 W 33 44 18 24 1011.9 1010.0 0.0
25/08:30am 16.8 11.0 8.0 56 4.6 WNW 28 39 15 21 1011.7 1009.8 0.0
25/08:00am 16.2 10.1 8.4 60 4.1 WNW 30 43 16 23 1011.6 1009.7 0.0
25/07:30am 15.9 12.5 9.3 65 3.5 WNW 17 26 9 14 1011.1 1009.2 0.0
25/07:00am 14.7 12.4 9.1 69 2.9 NW 11 20 6 11 1011.0 1009.1 0.0
25/06:30am 13.9 12.3 8.7 71 2.7 NW 7 11 4 6 1010.7 1008.8 0.0
25/06:00am 12.8 11.1 8.5 75 2.2 NW 7 9 4 5 1010.7 1008.8 0.0
25/05:30am 13.6 11.3 8.9 73 2.4 W 11 17 6 9 1010.6 1008.7 0.0
25/05:00am 13.9 11.0 8.3 69 2.9 WSW 13 17 7 9 1010.4 1008.5 0.0
25/04:30am 14.3 10.5 7.4 63 3.5 WSW 17 24 9 13 1010.4 1008.5 0.0
25/04:00am 14.7 10.5 5.8 55 4.4 W 17 22 9 12 1010.0 1008.1 0.0
25/03:30am 15.0 11.1 5.2 52 4.8 W 15 24 8 13 1009.7 1007.7 0.0
25/03:00am 14.8 11.5 4.8 51 4.8 W 11 15 6 8 1009.6 1007.6 0.0
25/02:30am 14.9 11.2 4.6 50 4.9 W 13 17 7 9 1009.6 1007.6 0.0
25/02:00am 14.9 12.0 4.6 50 5.0 WNW 9 13 5 7 1009.7 1007.7 0.0
25/01:30am 15.2 11.5 4.6 49 5.1 W 13 17 7 9 1009.6 1007.6 0.0
25/01:00am 14.2 11.6 4.2 51 4.7 WNW 7 9 4 5 1009.5 1007.5 0.0
25/12:30am 15.2 12.7 4.6 49 5.1 W 7 7 4 4 1009.6 1007.6 0.0
25/12:00am 16.2 13.3 4.6 46 5.6 WNW 9 11 5 6 1009.8 1007.8 0.0
 
Date/Time
WST
Temp
°C
App
Temp
°C
Dew
Point
°C
Rel
Hum
%
Delta-T
°C
Wind Press
QNH
hPa
Press
MSL
hPa
Rain since
9am
mm
Dir  Spd
km/h
Gust
km/h
Spd
kts
Gust
kts
24/11:30pm 17.1 13.8 4.8 44 6.0 WNW 11 17 6 9 1010.0 1008.1 0.0
24/11:00pm 17.2 14.7 4.5 43 6.2 NW 7 13 4 7 1010.1 1008.2 0.0
24/10:30pm 17.9 13.9 4.8 42 6.5 WNW 15 22 8 12 1010.3 1008.4 0.0
24/10:00pm 18.0 13.4 3.9 39 6.8 W 17 22 9 12 1010.5 1008.6 0.0
24/09:30pm 18.2 14.0 4.0 39 6.9 W 15 22 8 12 1010.6 1008.7 0.0
24/09:00pm 18.6 14.1 4.0 38 7.1 W 17 26 9 14 1010.7 1008.8 0.0
24/08:30pm 19.0 14.0 4.7 39 7.1 W 20 28 11 15 1010.6 1008.7 0.0
24/08:00pm 19.4 14.4 4.7 38 7.3 W 20 30 11 16 1010.3 1008.4 0.0
24/07:30pm 19.7 14.8 4.2 36 7.6 W 19 28 10 15 1010.1 1008.2 0.0
24/07:00pm 20.2 15.1 4.3 35 7.9 W 20 30 11 16 1009.9 1008.0 0.0
24/06:30pm 20.7 14.8 3.9 33 8.3 W 24 35 13 19 1009.7 1007.7 0.0
24/06:00pm 21.2 15.2 3.4 31 8.8 WNW 24 35 13 19 1009.3 1007.4 0.0
24/05:30pm 22.0 16.7 3.2 29 9.2 W 20 35 11 19 1009.2 1007.3 0.0
24/05:00pm 22.6 15.7 2.7 27 9.8 WNW 28 41 15 22 1008.9 1007.0 0.0
24/04:30pm 23.0 16.9 2.5 26 10.0 WNW 24 33 13 18 1008.8 1006.9 0.0
24/04:00pm 23.1 17.6 2.0 25 10.2 WNW 20 30 11 16 1008.9 1007.0 0.0
24/03:30pm 22.9 16.7 1.9 25 10.1 W 24 33 13 18 1009.1 1007.2 0.0
24/03:00pm 23.0 16.4 1.9 25 10.2 W 26 41 14 22 1009.1 1007.2 0.0
24/02:30pm 22.9 16.3 1.9 25 10.1 WNW 26 41 14 22 1009.3 1007.4 0.0
24/02:00pm 23.0 16.3 3.5 28 9.7 W 28 41 15 22 1009.7 1007.7 0.0
24/01:30pm 22.5 16.9 3.6 29 9.4 WNW 22 41 12 22 1010.2 1008.3 0.0
24/01:00pm 21.9 15.3 4.0 31 8.9 W 28 44 15 24 1010.5 1008.6 0.0
24/12:30pm 22.5 16.5 5.4 33 8.8 WNW 26 43 14 23 1010.9 1009.0 0.0
24/12:00pm 20.8 15.2 5.6 37 7.8 W 24 37 13 20 1011.4 1009.4 0.0
24/11:30am 20.3 14.7 5.5 38 7.5 WNW 24 37 13 20 1011.7 1009.8 0.0
24/11:00am 19.8 15.8 6.5 42 6.9 W 17 26 9 14 1012.3 1010.4 0.0
24/10:30am 19.2 15.2 6.7 44 6.4 WSW 17 30 9 16 1012.6 1010.7 0.0
24/10:00am 19.1 14.8 6.9 45 6.3 WSW 19 26 10 14 1012.9 1011.0 0.0
24/09:30am 18.3 15.1 6.8 47 5.9 WSW 13 24 7 13 1013.3 1011.4 0.0
24/09:00am 17.6 14.0 6.8 49 5.5 SW 15 26 8 14 1013.6 1011.7 0.0
24/08:30am 16.4 12.4 6.5 52 5.0 WSW 17 24 9 13 1013.7 1011.8 0.0
24/08:00am 15.9 11.8 6.3 53 4.8 SW 17 26 9 14 1013.6 1011.7 0.0
24/07:30am 15.1 11.9 5.0 51 4.9 WSW 11 17 6 9 1013.4 1011.5 0.0
24/07:00am 13.5 9.9 3.0 49 4.8 NW 11 15 6 8 1012.9 1011.0 0.0
24/06:30am 11.8 8.7 0.3 45 4.9 NW 6 7 3 4 1012.3 1010.4 0.0
24/06:00am 10.4 7.6 -0.7 46 4.6 NW 4 4 2 2 1012.1 1010.2 0.0
24/05:30am 10.5 7.6 -0.9 45 4.7 WNW 4 6 2 3 1012.0 1010.1 0.0
24/05:00am 10.6 7.7 -1.1 44 4.8 WNW 4 6 2 3 1011.9 1010.0 0.0
24/04:30am 11.9 8.7 -0.6 42 5.2 WNW 6 11 3 6 1011.8 1009.9 0.0
24/04:00am 10.8 7.3 -1.6 42 5.0 NNE 7 7 4 4 1011.2 1009.3 0.0
24/03:30am 11.3 8.0 -1.1 42 5.1 NE 6 6 3 3 1011.4 1009.4 0.0
24/03:00am 11.5 8.2 -1.3 41 5.3 ENE 6 6 3 3 1011.4 1009.4 0.0
24/02:30am 11.9 9.0 -1.3 40 5.4 E 4 4 2 2 1011.7 1009.8 0.0
24/02:00am 12.2 9.7 -1.3 39 5.6 E 2 2 1 1 1011.9 1010.0 0.0
24/01:30am 12.1 9.5 -1.8 38 5.7 NNW 2 2 1 1 1012.2 1010.3 0.0
24/01:00am 12.4 9.5 -1.1 39 5.6 NNW 4 6 2 3 1012.4 1010.5 0.0
24/12:30am 12.8 10.3 -1.1 38 5.8 WSW 2 4 1 2 1012.6 1010.7 0.0
24/12:00am 13.8 11.4 -0.6 37 6.1 SSE 2 4 1 2 1012.8 1010.9 0.0
 
Date/Time
WST
Temp
°C
App
Temp
°C
Dew
Point
°C
Rel
Hum
%
Delta-T
°C
Wind Press
QNH
hPa
Press
MSL
hPa
Rain since
9am
mm
Dir  Spd
km/h
Gust
km/h
Spd
kts
Gust
kts
23/11:30pm 14.2 11.4 -0.6 36 6.3 SE 4 6 2 3 1013.0 1011.2 0.0
23/11:00pm 15.1 12.3 -0.2 35 6.7 SSE 4 4 2 2 1013.1 1011.3 0.0
23/10:30pm 16.1 13.3 -0.2 33 7.1 S 4 6 2 3 1013.4 1011.5 0.0
23/10:00pm 16.7 13.4 -0.1 32 7.4 SSW 7 7 4 4 1013.7 1011.8 0.0
23/09:30pm 17.5 13.8 0.2 31 7.7 SSW 9 11 5 6 1013.8 1011.9 0.0
23/09:00pm 18.2 14.1 -0.1 29 8.2 SW 11 15 6 8 1014.0 1012.1 0.0
23/08:30pm 19.0 14.1 -0.4 27 8.7 SW 15 19 8 10 1014.1 1012.2 0.0
23/08:00pm 19.5 14.6 -0.5 26 9.0 SW 15 19 8 10 1014.0 1012.1 0.0
23/07:30pm 20.0 15.5 -0.1 26 9.1 SW 13 15 7 8 1013.8 1011.9 0.0
23/07:00pm 20.7 16.2 0.0 25 9.5 SW 13 19 7 10 1013.4 1011.5 0.0
23/06:30pm 21.5 16.8 0.7 25 9.7 WSW 15 20 8 11 1013.0 1011.2 0.0
23/06:00pm 22.1 17.0 0.6 24 10.1 WSW 17 22 9 12 1013.0 1011.2 0.0
23/05:30pm 22.5 17.4 0.9 24 10.2 W 17 26 9 14 1012.8 1010.9 0.0
23/05:00pm 23.6 18.5 0.7 22 10.9 WNW 17 26 9 14 1012.8 1010.9 0.0
23/04:30pm 23.4 18.6 0.5 22 10.8 W 15 26 8 14 1012.7 1010.8 0.0
23/04:00pm 23.3 17.8 0.4 22 10.8 WSW 19 30 10 16 1012.7 1010.8 0.0
23/03:30pm 22.9 17.9 1.3 24 10.3 W 17 30 9 16 1012.8 1010.9 0.0
23/03:00pm 23.1 17.7 1.5 24 10.4 W 19 28 10 15 1013.1 1011.3 0.0
23/02:30pm 23.5 18.3 2.4 25 10.3 WNW 19 32 10 17 1013.3 1011.4 0.0
23/02:00pm 22.6 17.6 1.6 25 10.1 WNW 17 32 9 17 1013.6 1011.7 0.0
23/01:30pm 21.9 17.1 2.6 28 9.4 W 17 28 9 15 1014.1 1012.2 0.0
23/01:00pm 21.5 17.6 3.2 30 9.0 WNW 13 28 7 15 1014.4 1012.5 0.0
23/12:30pm 20.6 16.3 3.3 32 8.4 WNW 15 28 8 15 1015.0 1013.2 0.0
23/12:00pm 19.9 16.4 3.6 34 8.0 WNW 11 20 6 11 1015.5 1013.6 0.0
23/11:30am 19.5 14.5 3.6 35 7.7 W 19 32 10 17 1016.0 1014.1 0.0
23/11:00am 18.6 14.4 4.0 38 7.1 W 15 26 8 14 1016.4 1014.6 0.0
23/10:30am 18.5 13.6 4.3 39 7.0 WSW 19 28 10 15 1016.6 1014.8 0.0
23/10:00am 17.8 13.3 4.0 40 6.7 W 17 32 9 17 1016.9 1015.1 0.0
23/09:30am 17.5 12.7 4.8 43 6.2 SW 19 30 10 16 1017.1 1015.2 0.0
23/09:00am 17.0 11.6 4.7 44 6.0 SW 22 32 12 17 1016.9 1015.1 0.0
23/08:30am 16.9 11.8 5.8 48 5.5 WSW 22 32 12 17 1016.7 1014.9 0.0
23/08:00am 15.9 12.0 7.1 56 4.5 SSW 17 22 9 12 1016.6 1014.8 0.0
23/07:30am 15.3 12.2 8.8 65 3.4 SW 15 24 8 13 1016.2 1014.3 0.0
23/07:00am 14.5 12.9 8.9 69 2.9 WSW 7 13 4 7 1015.6 1013.7 0.0
23/06:30am 12.9 11.8 8.4 74 2.3 W 4 7 2 4 1015.3 1013.4 0.0
23/06:00am 12.2 11.4 8.3 77 2.0 WNW 2 6 1 3 1015.0 1013.2 0.0
23/05:30am 12.5 11.8 8.4 76 2.1 WNW 2 6 1 3 1014.8 1013.0 0.0
23/05:00am 13.4 11.8 8.9 74 2.3 SW 7 9 4 5 1014.7 1012.9 0.0
23/04:30am 13.8 12.2 8.8 72 2.6 SW 7 11 4 6 1014.5 1012.6 0.0
23/04:00am 14.1 11.8 9.1 72 2.6 SSW 11 15 6 8 1014.0 1012.1 0.0
23/03:30am 14.6 11.2 9.2 70 2.8 SSW 17 22 9 12 1014.1 1012.2 0.0
23/03:00am 15.0 12.6 8.7 66 3.3 SSW 11 15 6 8 1014.0 1012.1 0.0
23/02:30am 15.5 12.7 8.5 63 3.7 SW 13 17 7 9 1014.0 1012.1 0.0
23/02:00am 16.1 12.9 8.6 61 3.9 SW 15 20 8 11 1014.1 1012.2 0.0
23/01:30am 16.5 12.6 8.7 60 4.1 SW 19 26 10 14 1014.1 1012.2 0.0
23/01:00am 17.1 13.2 8.8 58 4.4 SW 19 26 10 14 1014.2 1012.3 0.0
23/12:30am 18.3 13.4 5.2 42 6.5 WSW 20 30 11 16 1014.2 1012.3 0.0
23/12:00am 18.8 14.0 4.9 40 6.9 WSW 19 28 10 15 1014.3 1012.4 0.0
 
Date/Time
WST
Temp
°C
App
Temp
°C
Dew
Point
°C
Rel
Hum
%
Delta-T
°C
Wind Press
QNH
hPa
Press
MSL
hPa
Rain since
9am
mm
Dir  Spd
km/h
Gust
km/h
Spd
kts
Gust
kts
22/11:30pm 19.3 14.1 5.4 40 7.0 WSW 22 32 12 17 1014.4 1012.5 0.0
22/11:00pm 19.8 13.8 5.5 39 7.2 WSW 26 33 14 18 1014.4 1012.5 0.0
22/10:30pm 20.2 14.8 6.2 40 7.2 WSW 24 33 13 18 1014.1 1012.2 0.0
22/10:00pm 20.7 15.0 6.6 40 7.3 WSW 26 39 14 21 1014.1 1012.2 0.0
22/09:30pm 21.4 14.7 7.3 40 7.5 WSW 32 41 17 22 1014.0 1012.1 0.0
22/09:00pm 22.1 15.3 7.9 40 7.6 WSW 33 44 18 24 1013.9 1012.0 0.0
22/08:30pm 22.9 16.3 8.6 40 7.8 WSW 33 44 18 24 1013.6 1011.7 0.0
22/08:00pm 23.7 17.9 9.3 40 8.0 WSW 30 43 16 23 1013.1 1011.3 0.0
22/07:39pm 24.3 17.9 8.7 37 8.6 WSW 32 50 17 27 1012.7 1010.8 0.0
22/07:30pm 24.4 18.1 8.8 37 8.6 W 32 43 17 23 1012.5 1010.6 0.0
22/07:00pm 25.1 18.6 9.0 36 9.0 W 33 44 18 24 1012.1 1010.2 0.0
22/06:40pm 25.6 20.1 9.0 35 9.3 W 28 46 15 25 1011.9 1010.0 0.0
22/06:30pm 25.9 20.2 8.4 33 9.7 W 28 41 15 22 1011.8 1009.9 0.0
22/06:03pm 26.4 19.5 7.4 30 10.4 W 33 54 18 29 1011.4 1009.4 0.0
22/06:00pm 26.5 19.7 7.5 30 10.4 W 33 48 18 26 1011.4 1009.4 0.0
22/05:33pm 26.9 19.6 7.4 29 10.7 W 35 54 19 29 1011.2 1009.3 0.0
22/05:30pm 27.0 19.3 6.9 28 10.9 W 37 54 20 29 1011.1 1009.2 0.0
22/05:00pm 27.9 18.9 6.6 26 11.6 W 43 63 23 34 1010.8 1008.9 0.0
22/04:30pm 29.1 20.8 5.9 23 12.5 WNW 39 57 21 31 1010.5 1008.6 0.0
22/04:13pm 29.2 19.6 4.6 21 13.0 WNW 44 63 24 34 1010.4 1008.5 0.0

Other Formats:

Comma delimited format used in spreadsheet applications
http://www.bom.gov.au/fwo/IDW60801/IDW60801.99400.axf

JavaScript Object Notation format (JSON) in row-major order
http://www.bom.gov.au/fwo/IDW60801/IDW60801.99400.json